sensor_id;sensor_type;location;lat;lon;timestamp;temperature;humidity
4637;DHT22;2331;48.806;9.140;2022-07-29T00:01:46;24.40;1.00
4637;DHT22;2331;48.806;9.140;2022-07-29T00:04:13;24.30;1.00
4637;DHT22;2331;48.806;9.140;2022-07-29T00:06:40;24.30;1.00
4637;DHT22;2331;48.806;9.140;2022-07-29T00:09:08;24.40;1.00
4637;DHT22;2331;48.806;9.140;2022-07-29T00:11:35;24.30;1.00
4637;DHT22;2331;48.806;9.140;2022-07-29T00:14:02;24.20;1.00
4637;DHT22;2331;48.806;9.140;2022-07-29T00:16:29;24.30;1.00
4637;DHT22;2331;48.806;9.140;2022-07-29T00:18:55;24.20;1.00
4637;DHT22;2331;48.806;9.140;2022-07-29T00:21:22;24.20;1.00
4637;DHT22;2331;48.806;9.140;2022-07-29T00:23:49;24.20;1.00
4637;DHT22;2331;48.806;9.140;2022-07-29T00:26:18;24.20;1.00
4637;DHT22;2331;48.806;9.140;2022-07-29T00:28:44;24.10;1.00
4637;DHT22;2331;48.806;9.140;2022-07-29T00:31:11;24.10;1.00
4637;DHT22;2331;48.806;9.140;2022-07-29T00:33:38;24.10;1.00
4637;DHT22;2331;48.806;9.140;2022-07-29T00:36:05;24.10;1.00
4637;DHT22;2331;48.806;9.140;2022-07-29T00:38:31;24.00;1.00
4637;DHT22;2331;48.806;9.140;2022-07-29T00:40:58;24.00;1.00
4637;DHT22;2331;48.806;9.140;2022-07-29T00:43:26;23.90;1.00
4637;DHT22;2331;48.806;9.140;2022-07-29T00:45:52;23.90;1.00
4637;DHT22;2331;48.806;9.140;2022-07-29T00:48:19;24.00;1.00
4637;DHT22;2331;48.806;9.140;2022-07-29T00:50:46;23.80;1.00
4637;DHT22;2331;48.806;9.140;2022-07-29T00:53:13;23.90;1.00
4637;DHT22;2331;48.806;9.140;2022-07-29T00:55:39;23.90;1.00
4637;DHT22;2331;48.806;9.140;2022-07-29T00:58:06;23.80;1.00
4637;DHT22;2331;48.806;9.140;2022-07-29T01:00:34;23.80;1.00
4637;DHT22;2331;48.806;9.140;2022-07-29T01:03:02;23.70;1.00
4637;DHT22;2331;48.806;9.140;2022-07-29T01:05:30;23.70;1.00
4637;DHT22;2331;48.806;9.140;2022-07-29T01:07:57;23.70;1.00
4637;DHT22;2331;48.806;9.140;2022-07-29T01:10:26;23.60;1.00
4637;DHT22;2331;48.806;9.140;2022-07-29T01:12:55;23.70;1.00
4637;DHT22;2331;48.806;9.140;2022-07-29T01:15:23;23.60;1.00
4637;DHT22;2331;48.806;9.140;2022-07-29T01:17:58;23.70;1.00
4637;DHT22;2331;48.806;9.140;2022-07-29T01:20:34;23.50;1.00
4637;DHT22;2331;48.806;9.140;2022-07-29T01:23:25;23.50;1.00
4637;DHT22;2331;48.806;9.140;2022-07-29T01:26:04;23.40;1.00
4637;DHT22;2331;48.806;9.140;2022-07-29T01:29:01;23.40;1.00
4637;DHT22;2331;48.806;9.140;2022-07-29T01:31:35;23.50;1.00
4637;DHT22;2331;48.806;9.140;2022-07-29T01:34:05;23.40;1.00
4637;DHT22;2331;48.806;9.140;2022-07-29T01:36:36;23.30;1.00
4637;DHT22;2331;48.806;9.140;2022-07-29T01:39:07;23.30;1.00
4637;DHT22;2331;48.806;9.140;2022-07-29T01:41:37;23.30;1.00
4637;DHT22;2331;48.806;9.140;2022-07-29T01:44:12;23.30;1.00
4637;DHT22;2331;48.806;9.140;2022-07-29T01:46:45;23.30;1.00
4637;DHT22;2331;48.806;9.140;2022-07-29T01:49:17;23.20;1.00
4637;DHT22;2331;48.806;9.140;2022-07-29T01:51:47;23.30;1.00
4637;DHT22;2331;48.806;9.140;2022-07-29T01:54:20;23.20;1.00
4637;DHT22;2331;48.806;9.140;2022-07-29T01:56:49;23.20;1.00
4637;DHT22;2331;48.806;9.140;2022-07-29T01:59:19;23.30;1.00
4637;DHT22;2331;48.806;9.140;2022-07-29T02:01:48;23.20;1.00
4637;DHT22;2331;48.806;9.140;2022-07-29T02:04:18;23.20;1.00
4637;DHT22;2331;48.806;9.140;2022-07-29T02:06:48;23.20;1.00
4637;DHT22;2331;48.806;9.140;2022-07-29T02:09:16;23.10;1.00
4637;DHT22;2331;48.806;9.140;2022-07-29T02:11:48;23.10;1.00
4637;DHT22;2331;48.806;9.140;2022-07-29T02:14:20;23.10;1.00
4637;DHT22;2331;48.806;9.140;2022-07-29T02:16:49;23.10;1.00
4637;DHT22;2331;48.806;9.140;2022-07-29T02:19:18;23.10;1.00
4637;DHT22;2331;48.806;9.140;2022-07-29T02:21:48;23.10;1.00
4637;DHT22;2331;48.806;9.140;2022-07-29T02:24:16;23.10;1.00
4637;DHT22;2331;48.806;9.140;2022-07-29T02:26:45;23.10;1.00
4637;DHT22;2331;48.806;9.140;2022-07-29T02:29:12;23.00;1.00
4637;DHT22;2331;48.806;9.140;2022-07-29T02:31:43;23.00;1.00
4637;DHT22;2331;48.806;9.140;2022-07-29T02:34:13;23.00;1.00
4637;DHT22;2331;48.806;9.140;2022-07-29T02:36:43;23.00;1.00
4637;DHT22;2331;48.806;9.140;2022-07-29T02:39:11;23.00;1.00
4637;DHT22;2331;48.806;9.140;2022-07-29T02:41:41;23.00;1.00
4637;DHT22;2331;48.806;9.140;2022-07-29T02:44:11;23.00;1.00
4637;DHT22;2331;48.806;9.140;2022-07-29T02:46:49;23.00;1.00
4637;DHT22;2331;48.806;9.140;2022-07-29T02:49:21;22.90;1.00
4637;DHT22;2331;48.806;9.140;2022-07-29T02:51:54;23.00;1.00
4637;DHT22;2331;48.806;9.140;2022-07-29T02:54:27;22.90;1.00
4637;DHT22;2331;48.806;9.140;2022-07-29T02:56:57;22.80;1.00
4637;DHT22;2331;48.806;9.140;2022-07-29T02:59:26;22.80;1.00
4637;DHT22;2331;48.806;9.140;2022-07-29T03:01:55;22.80;1.00
4637;DHT22;2331;48.806;9.140;2022-07-29T03:04:25;22.80;1.00
4637;DHT22;2331;48.806;9.140;2022-07-29T03:06:54;22.70;1.00
4637;DHT22;2331;48.806;9.140;2022-07-29T03:09:22;22.70;1.00
4637;DHT22;2331;48.806;9.140;2022-07-29T03:11:49;22.80;1.00
4637;DHT22;2331;48.806;9.140;2022-07-29T03:14:17;22.70;1.00
4637;DHT22;2331;48.806;9.140;2022-07-29T03:16:45;22.60;1.00
4637;DHT22;2331;48.806;9.140;2022-07-29T03:19:13;22.60;1.00
4637;DHT22;2331;48.806;9.140;2022-07-29T03:21:40;22.70;1.00
4637;DHT22;2331;48.806;9.140;2022-07-29T03:24:07;22.70;1.00
4637;DHT22;2331;48.806;9.140;2022-07-29T03:26:34;22.70;1.00
4637;DHT22;2331;48.806;9.140;2022-07-29T03:29:01;22.70;1.00
4637;DHT22;2331;48.806;9.140;2022-07-29T03:31:27;22.70;1.00
4637;DHT22;2331;48.806;9.140;2022-07-29T03:33:54;22.60;1.00
4637;DHT22;2331;48.806;9.140;2022-07-29T03:36:22;22.70;1.00
4637;DHT22;2331;48.806;9.140;2022-07-29T03:38:50;22.70;1.00
4637;DHT22;2331;48.806;9.140;2022-07-29T03:41:18;22.60;1.00
4637;DHT22;2331;48.806;9.140;2022-07-29T03:43:47;22.60;1.00
4637;DHT22;2331;48.806;9.140;2022-07-29T03:46:16;22.60;1.00
4637;DHT22;2331;48.806;9.140;2022-07-29T03:48:48;22.60;1.00
4637;DHT22;2331;48.806;9.140;2022-07-29T03:51:16;22.60;1.00
4637;DHT22;2331;48.806;9.140;2022-07-29T03:53:45;22.50;1.00
4637;DHT22;2331;48.806;9.140;2022-07-29T03:56:13;22.40;1.00
4637;DHT22;2331;48.806;9.140;2022-07-29T03:58:42;22.40;1.00
4637;DHT22;2331;48.806;9.140;2022-07-29T04:01:10;22.40;1.00
4637;DHT22;2331;48.806;9.140;2022-07-29T04:03:38;22.40;1.00
4637;DHT22;2331;48.806;9.140;2022-07-29T04:06:06;22.40;1.00
4637;DHT22;2331;48.806;9.140;2022-07-29T04:08:33;22.50;1.00
4637;DHT22;2331;48.806;9.140;2022-07-29T04:11:02;22.50;1.00
4637;DHT22;2331;48.806;9.140;2022-07-29T04:13:29;22.40;1.00
4637;DHT22;2331;48.806;9.140;2022-07-29T04:15:56;22.40;1.00
4637;DHT22;2331;48.806;9.140;2022-07-29T04:18:23;22.50;1.00
4637;DHT22;2331;48.806;9.140;2022-07-29T04:20:50;22.50;1.00
4637;DHT22;2331;48.806;9.140;2022-07-29T04:23:17;22.40;1.00
4637;DHT22;2331;48.806;9.140;2022-07-29T04:25:44;22.40;1.00
4637;DHT22;2331;48.806;9.140;2022-07-29T04:28:12;22.30;1.00
4637;DHT22;2331;48.806;9.140;2022-07-29T04:30:39;22.30;1.00
4637;DHT22;2331;48.806;9.140;2022-07-29T04:33:07;22.30;1.00
4637;DHT22;2331;48.806;9.140;2022-07-29T04:35:35;22.30;1.00
4637;DHT22;2331;48.806;9.140;2022-07-29T04:38:03;22.30;1.00
4637;DHT22;2331;48.806;9.140;2022-07-29T04:40:30;22.40;1.00
4637;DHT22;2331;48.806;9.140;2022-07-29T04:42:58;22.30;1.00
4637;DHT22;2331;48.806;9.140;2022-07-29T04:45:27;22.30;1.00
4637;DHT22;2331;48.806;9.140;2022-07-29T04:47:54;22.30;1.00
4637;DHT22;2331;48.806;9.140;2022-07-29T04:50:21;22.30;1.00
4637;DHT22;2331;48.806;9.140;2022-07-29T04:52:47;22.30;1.00
4637;DHT22;2331;48.806;9.140;2022-07-29T04:55:14;22.30;1.00
4637;DHT22;2331;48.806;9.140;2022-07-29T04:57:41;22.40;1.00
4637;DHT22;2331;48.806;9.140;2022-07-29T05:00:09;22.30;1.00
4637;DHT22;2331;48.806;9.140;2022-07-29T05:02:39;22.30;1.00
4637;DHT22;2331;48.806;9.140;2022-07-29T05:05:12;22.30;1.00
4637;DHT22;2331;48.806;9.140;2022-07-29T05:07:58;22.30;1.00
4637;DHT22;2331;48.806;9.140;2022-07-29T05:10:25;22.30;1.00
4637;DHT22;2331;48.806;9.140;2022-07-29T05:12:52;22.30;1.00
4637;DHT22;2331;48.806;9.140;2022-07-29T05:15:19;22.40;1.00
4637;DHT22;2331;48.806;9.140;2022-07-29T05:17:47;22.30;1.00
4637;DHT22;2331;48.806;9.140;2022-07-29T05:20:14;22.30;1.00
4637;DHT22;2331;48.806;9.140;2022-07-29T05:22:41;22.40;1.00
4637;DHT22;2331;48.806;9.140;2022-07-29T05:25:08;22.40;1.00
4637;DHT22;2331;48.806;9.140;2022-07-29T05:27:35;22.40;1.00
4637;DHT22;2331;48.806;9.140;2022-07-29T05:30:02;22.50;1.00
4637;DHT22;2331;48.806;9.140;2022-07-29T05:32:29;22.50;1.00
4637;DHT22;2331;48.806;9.140;2022-07-29T05:34:57;22.60;1.00
4637;DHT22;2331;48.806;9.140;2022-07-29T05:37:24;22.50;1.00
4637;DHT22;2331;48.806;9.140;2022-07-29T05:39:51;22.60;1.00
4637;DHT22;2331;48.806;9.140;2022-07-29T05:42:18;22.60;1.00
4637;DHT22;2331;48.806;9.140;2022-07-29T05:44:45;22.60;1.00
4637;DHT22;2331;48.806;9.140;2022-07-29T05:47:12;22.70;1.00
4637;DHT22;2331;48.806;9.140;2022-07-29T05:49:39;22.60;1.00
4637;DHT22;2331;48.806;9.140;2022-07-29T05:52:08;22.60;1.00
4637;DHT22;2331;48.806;9.140;2022-07-29T05:54:35;22.70;1.00
4637;DHT22;2331;48.806;9.140;2022-07-29T05:57:03;22.70;1.00
4637;DHT22;2331;48.806;9.140;2022-07-29T05:59:30;22.70;1.00
4637;DHT22;2331;48.806;9.140;2022-07-29T06:01:56;22.70;1.00
4637;DHT22;2331;48.806;9.140;2022-07-29T06:04:23;22.80;1.00
4637;DHT22;2331;48.806;9.140;2022-07-29T06:06:50;22.80;1.00
4637;DHT22;2331;48.806;9.140;2022-07-29T06:09:18;22.90;1.00
4637;DHT22;2331;48.806;9.140;2022-07-29T06:11:45;22.80;1.00
4637;DHT22;2331;48.806;9.140;2022-07-29T06:14:12;22.90;1.00
4637;DHT22;2331;48.806;9.140;2022-07-29T06:16:39;22.90;1.00
4637;DHT22;2331;48.806;9.140;2022-07-29T06:19:06;22.80;1.00
4637;DHT22;2331;48.806;9.140;2022-07-29T06:21:32;22.80;1.00
4637;DHT22;2331;48.806;9.140;2022-07-29T06:24:00;22.90;1.00
4637;DHT22;2331;48.806;9.140;2022-07-29T06:26:28;23.00;1.00
4637;DHT22;2331;48.806;9.140;2022-07-29T06:28:55;23.10;1.00
4637;DHT22;2331;48.806;9.140;2022-07-29T06:31:22;23.10;1.00
4637;DHT22;2331;48.806;9.140;2022-07-29T06:33:48;23.10;1.00
4637;DHT22;2331;48.806;9.140;2022-07-29T06:36:15;23.10;1.00
4637;DHT22;2331;48.806;9.140;2022-07-29T06:38:42;23.30;1.00
4637;DHT22;2331;48.806;9.140;2022-07-29T06:41:09;23.20;1.00
4637;DHT22;2331;48.806;9.140;2022-07-29T06:43:40;23.20;1.00
4637;DHT22;2331;48.806;9.140;2022-07-29T06:46:09;23.20;1.00
4637;DHT22;2331;48.806;9.140;2022-07-29T06:48:37;23.30;1.00
4637;DHT22;2331;48.806;9.140;2022-07-29T06:51:05;23.20;1.00
4637;DHT22;2331;48.806;9.140;2022-07-29T06:53:33;23.10;1.00
4637;DHT22;2331;48.806;9.140;2022-07-29T06:56:01;23.20;1.00
4637;DHT22;2331;48.806;9.140;2022-07-29T06:58:28;23.30;1.00
4637;DHT22;2331;48.806;9.140;2022-07-29T07:00:57;23.40;1.00
4637;DHT22;2331;48.806;9.140;2022-07-29T07:03:24;23.40;1.00
4637;DHT22;2331;48.806;9.140;2022-07-29T07:05:53;23.40;1.00
4637;DHT22;2331;48.806;9.140;2022-07-29T07:08:21;23.40;1.00
4637;DHT22;2331;48.806;9.140;2022-07-29T07:10:49;23.50;1.00
4637;DHT22;2331;48.806;9.140;2022-07-29T07:13:16;23.50;1.00
4637;DHT22;2331;48.806;9.140;2022-07-29T07:15:43;23.60;1.00
4637;DHT22;2331;48.806;9.140;2022-07-29T07:18:12;23.80;1.00
4637;DHT22;2331;48.806;9.140;2022-07-29T07:20:38;23.70;1.00
4637;DHT22;2331;48.806;9.140;2022-07-29T07:23:05;23.70;1.00
4637;DHT22;2331;48.806;9.140;2022-07-29T07:25:32;23.70;1.00
4637;DHT22;2331;48.806;9.140;2022-07-29T07:28:00;23.80;1.00
4637;DHT22;2331;48.806;9.140;2022-07-29T07:30:27;23.80;1.00
4637;DHT22;2331;48.806;9.140;2022-07-29T07:32:54;23.80;1.00
4637;DHT22;2331;48.806;9.140;2022-07-29T07:35:22;23.90;1.00
4637;DHT22;2331;48.806;9.140;2022-07-29T07:37:49;23.90;1.00
4637;DHT22;2331;48.806;9.140;2022-07-29T07:40:16;23.90;1.00
4637;DHT22;2331;48.806;9.140;2022-07-29T07:42:43;23.90;1.00
4637;DHT22;2331;48.806;9.140;2022-07-29T07:45:10;24.00;1.00
4637;DHT22;2331;48.806;9.140;2022-07-29T07:47:38;24.00;1.00
4637;DHT22;2331;48.806;9.140;2022-07-29T07:50:06;24.10;1.00
4637;DHT22;2331;48.806;9.140;2022-07-29T07:52:46;24.20;1.00
4637;DHT22;2331;48.806;9.140;2022-07-29T07:55:13;24.30;1.00
4637;DHT22;2331;48.806;9.140;2022-07-29T07:57:40;24.40;1.00
4637;DHT22;2331;48.806;9.140;2022-07-29T08:00:08;24.40;1.00
4637;DHT22;2331;48.806;9.140;2022-07-29T08:02:35;24.40;1.00
4637;DHT22;2331;48.806;9.140;2022-07-29T08:05:02;24.40;1.00
4637;DHT22;2331;48.806;9.140;2022-07-29T08:07:29;24.40;1.00
4637;DHT22;2331;48.806;9.140;2022-07-29T08:09:57;24.50;1.00
4637;DHT22;2331;48.806;9.140;2022-07-29T08:12:24;24.60;1.00
4637;DHT22;2331;48.806;9.140;2022-07-29T08:14:50;24.70;1.00
4637;DHT22;2331;48.806;9.140;2022-07-29T08:17:17;24.70;1.00
4637;DHT22;2331;48.806;9.140;2022-07-29T08:19:44;24.70;1.00
4637;DHT22;2331;48.806;9.140;2022-07-29T08:22:11;24.70;1.00
4637;DHT22;2331;48.806;9.140;2022-07-29T08:24:37;24.90;1.00
4637;DHT22;2331;48.806;9.140;2022-07-29T08:27:13;24.80;1.00
4637;DHT22;2331;48.806;9.140;2022-07-29T08:29:40;24.90;1.00
4637;DHT22;2331;48.806;9.140;2022-07-29T08:32:07;24.80;1.00
4637;DHT22;2331;48.806;9.140;2022-07-29T08:34:34;25.00;1.00
4637;DHT22;2331;48.806;9.140;2022-07-29T08:37:00;25.10;1.00
4637;DHT22;2331;48.806;9.140;2022-07-29T08:39:27;25.20;1.00
4637;DHT22;2331;48.806;9.140;2022-07-29T08:41:54;25.30;1.00
4637;DHT22;2331;48.806;9.140;2022-07-29T08:44:22;25.30;1.00
4637;DHT22;2331;48.806;9.140;2022-07-29T08:46:49;25.40;1.00
4637;DHT22;2331;48.806;9.140;2022-07-29T08:49:17;25.40;1.00
4637;DHT22;2331;48.806;9.140;2022-07-29T08:51:44;25.40;1.00
4637;DHT22;2331;48.806;9.140;2022-07-29T08:54:11;25.50;1.00
4637;DHT22;2331;48.806;9.140;2022-07-29T08:56:40;25.50;1.00
4637;DHT22;2331;48.806;9.140;2022-07-29T08:59:08;25.60;1.00
4637;DHT22;2331;48.806;9.140;2022-07-29T09:01:37;25.60;1.00
4637;DHT22;2331;48.806;9.140;2022-07-29T09:04:10;25.70;1.00
4637;DHT22;2331;48.806;9.140;2022-07-29T09:06:40;25.70;1.00
4637;DHT22;2331;48.806;9.140;2022-07-29T09:09:08;25.80;1.00
4637;DHT22;2331;48.806;9.140;2022-07-29T09:11:35;25.80;1.00
4637;DHT22;2331;48.806;9.140;2022-07-29T09:14:02;25.80;1.00
4637;DHT22;2331;48.806;9.140;2022-07-29T09:16:47;25.80;1.00
4637;DHT22;2331;48.806;9.140;2022-07-29T09:19:22;26.00;1.00
4637;DHT22;2331;48.806;9.140;2022-07-29T09:21:50;26.10;1.00
4637;DHT22;2331;48.806;9.140;2022-07-29T09:24:42;26.10;1.00
4637;DHT22;2331;48.806;9.140;2022-07-29T09:27:10;26.10;1.00
4637;DHT22;2331;48.806;9.140;2022-07-29T09:29:38;26.20;1.00
4637;DHT22;2331;48.806;9.140;2022-07-29T09:32:09;26.30;1.00
4637;DHT22;2331;48.806;9.140;2022-07-29T09:34:37;26.30;1.00
4637;DHT22;2331;48.806;9.140;2022-07-29T09:37:04;26.30;1.00
4637;DHT22;2331;48.806;9.140;2022-07-29T09:39:32;26.40;1.00
4637;DHT22;2331;48.806;9.140;2022-07-29T09:42:01;26.50;1.00
4637;DHT22;2331;48.806;9.140;2022-07-29T09:44:41;26.50;1.00
4637;DHT22;2331;48.806;9.140;2022-07-29T09:47:10;26.60;1.00
4637;DHT22;2331;48.806;9.140;2022-07-29T09:49:51;26.70;1.00
4637;DHT22;2331;48.806;9.140;2022-07-29T09:52:18;26.60;1.00
4637;DHT22;2331;48.806;9.140;2022-07-29T09:54:46;26.70;1.00
4637;DHT22;2331;48.806;9.140;2022-07-29T09:57:23;26.70;1.00
4637;DHT22;2331;48.806;9.140;2022-07-29T09:59:56;26.70;1.00
4637;DHT22;2331;48.806;9.140;2022-07-29T10:02:30;26.70;1.00
4637;DHT22;2331;48.806;9.140;2022-07-29T10:04:58;26.70;1.00
4637;DHT22;2331;48.806;9.140;2022-07-29T10:07:25;26.70;1.00
4637;DHT22;2331;48.806;9.140;2022-07-29T10:09:53;26.80;1.00
4637;DHT22;2331;48.806;9.140;2022-07-29T10:12:22;26.90;1.00
4637;DHT22;2331;48.806;9.140;2022-07-29T10:14:49;26.80;1.00
4637;DHT22;2331;48.806;9.140;2022-07-29T10:17:17;26.70;1.00
4637;DHT22;2331;48.806;9.140;2022-07-29T10:19:46;26.60;1.00
4637;DHT22;2331;48.806;9.140;2022-07-29T10:22:14;26.60;1.00
4637;DHT22;2331;48.806;9.140;2022-07-29T10:24:41;26.60;1.00
4637;DHT22;2331;48.806;9.140;2022-07-29T10:27:08;26.60;1.00
4637;DHT22;2331;48.806;9.140;2022-07-29T10:29:35;26.50;1.00
4637;DHT22;2331;48.806;9.140;2022-07-29T10:32:19;26.70;1.00
4637;DHT22;2331;48.806;9.140;2022-07-29T10:35:02;26.70;1.00
4637;DHT22;2331;48.806;9.140;2022-07-29T10:37:45;26.70;1.00
4637;DHT22;2331;48.806;9.140;2022-07-29T10:40:21;26.50;1.00
4637;DHT22;2331;48.806;9.140;2022-07-29T10:43:17;26.50;1.00
4637;DHT22;2331;48.806;9.140;2022-07-29T10:45:46;26.50;1.00
4637;DHT22;2331;48.806;9.140;2022-07-29T10:48:13;26.40;1.00
4637;DHT22;2331;48.806;9.140;2022-07-29T10:50:55;26.50;1.00
4637;DHT22;2331;48.806;9.140;2022-07-29T10:53:22;26.40;1.00
4637;DHT22;2331;48.806;9.140;2022-07-29T10:55:51;26.40;1.00
4637;DHT22;2331;48.806;9.140;2022-07-29T10:58:19;26.40;1.00
4637;DHT22;2331;48.806;9.140;2022-07-29T11:00:48;26.30;1.00
4637;DHT22;2331;48.806;9.140;2022-07-29T11:03:43;26.30;1.00
4637;DHT22;2331;48.806;9.140;2022-07-29T11:06:13;26.40;1.00
4637;DHT22;2331;48.806;9.140;2022-07-29T11:08:41;26.40;1.00
4637;DHT22;2331;48.806;9.140;2022-07-29T11:11:34;26.50;1.00
4637;DHT22;2331;48.806;9.140;2022-07-29T11:14:04;26.50;1.00
4637;DHT22;2331;48.806;9.140;2022-07-29T11:16:58;26.30;1.00
4637;DHT22;2331;48.806;9.140;2022-07-29T11:19:25;26.30;1.00
4637;DHT22;2331;48.806;9.140;2022-07-29T11:21:54;26.20;1.00
4637;DHT22;2331;48.806;9.140;2022-07-29T11:24:22;26.20;1.00
4637;DHT22;2331;48.806;9.140;2022-07-29T11:27:13;26.10;1.00
4637;DHT22;2331;48.806;9.140;2022-07-29T11:29:49;26.00;1.00
4637;DHT22;2331;48.806;9.140;2022-07-29T11:32:17;26.10;1.00
4637;DHT22;2331;48.806;9.140;2022-07-29T11:34:46;26.00;1.00
4637;DHT22;2331;48.806;9.140;2022-07-29T11:37:19;26.00;1.00
4637;DHT22;2331;48.806;9.140;2022-07-29T11:42:54;26.00;1.00
4637;DHT22;2331;48.806;9.140;2022-07-29T11:45:25;25.90;1.00
4637;DHT22;2331;48.806;9.140;2022-07-29T11:47:58;25.80;1.00
4637;DHT22;2331;48.806;9.140;2022-07-29T11:50:34;25.80;1.00
4637;DHT22;2331;48.806;9.140;2022-07-29T11:53:10;25.90;1.00
4637;DHT22;2331;48.806;9.140;2022-07-29T11:55:38;25.90;1.00
4637;DHT22;2331;48.806;9.140;2022-07-29T11:58:05;25.90;1.00
4637;DHT22;2331;48.806;9.140;2022-07-29T12:00:34;25.90;1.00
4637;DHT22;2331;48.806;9.140;2022-07-29T12:03:05;26.00;1.00
4637;DHT22;2331;48.806;9.140;2022-07-29T12:05:34;26.00;1.00
4637;DHT22;2331;48.806;9.140;2022-07-29T12:08:08;26.00;1.00
4637;DHT22;2331;48.806;9.140;2022-07-29T12:10:36;26.00;1.00
4637;DHT22;2331;48.806;9.140;2022-07-29T12:13:03;26.00;1.00
4637;DHT22;2331;48.806;9.140;2022-07-29T12:15:30;26.00;1.00
4637;DHT22;2331;48.806;9.140;2022-07-29T12:17:57;26.00;1.00
4637;DHT22;2331;48.806;9.140;2022-07-29T12:20:25;26.00;1.00
4637;DHT22;2331;48.806;9.140;2022-07-29T12:22:52;26.00;1.00
4637;DHT22;2331;48.806;9.140;2022-07-29T12:25:22;26.00;1.00
4637;DHT22;2331;48.806;9.140;2022-07-29T12:27:58;26.00;1.00
4637;DHT22;2331;48.806;9.140;2022-07-29T12:30:35;26.00;1.00
4637;DHT22;2331;48.806;9.140;2022-07-29T12:33:12;25.80;1.00
4637;DHT22;2331;48.806;9.140;2022-07-29T12:35:40;25.80;1.00
4637;DHT22;2331;48.806;9.140;2022-07-29T12:38:10;25.80;1.00
4637;DHT22;2331;48.806;9.140;2022-07-29T12:40:39;25.70;1.00
4637;DHT22;2331;48.806;9.140;2022-07-29T12:43:08;25.70;1.00
4637;DHT22;2331;48.806;9.140;2022-07-29T12:45:36;25.70;1.00
4637;DHT22;2331;48.806;9.140;2022-07-29T12:48:03;25.70;1.00
4637;DHT22;2331;48.806;9.140;2022-07-29T12:50:31;25.60;1.00
4637;DHT22;2331;48.806;9.140;2022-07-29T12:53:08;25.60;1.00
4637;DHT22;2331;48.806;9.140;2022-07-29T12:55:42;25.50;1.00
4637;DHT22;2331;48.806;9.140;2022-07-29T12:58:09;25.50;1.00
4637;DHT22;2331;48.806;9.140;2022-07-29T13:00:36;25.40;1.00
4637;DHT22;2331;48.806;9.140;2022-07-29T13:03:03;25.50;1.00
4637;DHT22;2331;48.806;9.140;2022-07-29T13:05:41;25.50;1.00
4637;DHT22;2331;48.806;9.140;2022-07-29T13:08:12;25.50;1.00
4637;DHT22;2331;48.806;9.140;2022-07-29T13:10:41;25.60;1.00
4637;DHT22;2331;48.806;9.140;2022-07-29T13:13:10;25.50;1.00
4637;DHT22;2331;48.806;9.140;2022-07-29T13:15:38;25.50;1.00
4637;DHT22;2331;48.806;9.140;2022-07-29T13:18:26;25.40;1.00
4637;DHT22;2331;48.806;9.140;2022-07-29T13:20:53;25.30;1.00
4637;DHT22;2331;48.806;9.140;2022-07-29T13:23:20;25.30;1.00
4637;DHT22;2331;48.806;9.140;2022-07-29T13:25:49;25.30;1.00
4637;DHT22;2331;48.806;9.140;2022-07-29T13:28:15;25.20;1.00
4637;DHT22;2331;48.806;9.140;2022-07-29T13:30:43;25.20;1.00
4637;DHT22;2331;48.806;9.140;2022-07-29T13:33:09;25.20;1.00
4637;DHT22;2331;48.806;9.140;2022-07-29T13:35:37;25.20;1.00
4637;DHT22;2331;48.806;9.140;2022-07-29T13:38:03;25.20;1.00
4637;DHT22;2331;48.806;9.140;2022-07-29T13:40:30;25.10;1.00
4637;DHT22;2331;48.806;9.140;2022-07-29T13:43:00;25.00;1.00
4637;DHT22;2331;48.806;9.140;2022-07-29T13:45:27;25.00;1.00
4637;DHT22;2331;48.806;9.140;2022-07-29T13:47:54;25.00;1.00
4637;DHT22;2331;48.806;9.140;2022-07-29T13:50:21;24.90;1.00
4637;DHT22;2331;48.806;9.140;2022-07-29T13:52:47;25.00;1.00
4637;DHT22;2331;48.806;9.140;2022-07-29T13:55:15;25.10;1.00
4637;DHT22;2331;48.806;9.140;2022-07-29T13:57:42;25.10;1.00
4637;DHT22;2331;48.806;9.140;2022-07-29T14:00:11;25.20;1.00
4637;DHT22;2331;48.806;9.140;2022-07-29T14:02:38;25.20;1.00
4637;DHT22;2331;48.806;9.140;2022-07-29T14:05:06;25.30;1.00
4637;DHT22;2331;48.806;9.140;2022-07-29T14:07:33;25.30;1.00
4637;DHT22;2331;48.806;9.140;2022-07-29T14:10:00;25.40;1.00
4637;DHT22;2331;48.806;9.140;2022-07-29T14:12:27;25.40;1.00
4637;DHT22;2331;48.806;9.140;2022-07-29T14:14:54;25.50;1.00
4637;DHT22;2331;48.806;9.140;2022-07-29T14:17:22;25.50;1.00
4637;DHT22;2331;48.806;9.140;2022-07-29T14:19:49;25.60;1.00
4637;DHT22;2331;48.806;9.140;2022-07-29T14:22:16;25.60;1.00
4637;DHT22;2331;48.806;9.140;2022-07-29T14:24:44;25.60;1.00
4637;DHT22;2331;48.806;9.140;2022-07-29T14:27:11;25.80;1.00
4637;DHT22;2331;48.806;9.140;2022-07-29T14:29:38;25.70;1.00
4637;DHT22;2331;48.806;9.140;2022-07-29T14:32:05;25.70;1.00
4637;DHT22;2331;48.806;9.140;2022-07-29T14:34:34;25.80;1.00
4637;DHT22;2331;48.806;9.140;2022-07-29T14:37:01;25.90;1.00
4637;DHT22;2331;48.806;9.140;2022-07-29T14:39:30;25.90;1.00
4637;DHT22;2331;48.806;9.140;2022-07-29T14:41:57;25.90;1.00
4637;DHT22;2331;48.806;9.140;2022-07-29T14:44:24;26.00;1.00
4637;DHT22;2331;48.806;9.140;2022-07-29T14:46:56;26.00;1.00
4637;DHT22;2331;48.806;9.140;2022-07-29T14:49:27;26.10;1.00
4637;DHT22;2331;48.806;9.140;2022-07-29T14:51:55;26.10;1.00
4637;DHT22;2331;48.806;9.140;2022-07-29T14:54:22;26.10;1.00
4637;DHT22;2331;48.806;9.140;2022-07-29T14:56:49;26.20;1.00
4637;DHT22;2331;48.806;9.140;2022-07-29T14:59:17;26.20;1.00
4637;DHT22;2331;48.806;9.140;2022-07-29T15:01:44;26.30;1.00
4637;DHT22;2331;48.806;9.140;2022-07-29T15:04:11;26.30;1.00
4637;DHT22;2331;48.806;9.140;2022-07-29T15:06:37;26.30;1.00
4637;DHT22;2331;48.806;9.140;2022-07-29T15:09:05;26.30;1.00
4637;DHT22;2331;48.806;9.140;2022-07-29T15:11:32;26.30;1.00
4637;DHT22;2331;48.806;9.140;2022-07-29T15:13:59;26.30;1.00
4637;DHT22;2331;48.806;9.140;2022-07-29T15:16:26;26.30;1.00
4637;DHT22;2331;48.806;9.140;2022-07-29T15:18:53;26.30;1.00
4637;DHT22;2331;48.806;9.140;2022-07-29T15:21:19;26.30;1.00
4637;DHT22;2331;48.806;9.140;2022-07-29T15:23:46;26.40;1.00
4637;DHT22;2331;48.806;9.140;2022-07-29T15:26:14;26.40;1.00
4637;DHT22;2331;48.806;9.140;2022-07-29T15:28:41;26.50;1.00
4637;DHT22;2331;48.806;9.140;2022-07-29T15:31:08;26.50;1.00
4637;DHT22;2331;48.806;9.140;2022-07-29T15:33:35;26.50;1.00
4637;DHT22;2331;48.806;9.140;2022-07-29T15:36:02;26.50;1.00
4637;DHT22;2331;48.806;9.140;2022-07-29T15:38:30;26.50;1.00
4637;DHT22;2331;48.806;9.140;2022-07-29T15:40:56;26.50;1.00
4637;DHT22;2331;48.806;9.140;2022-07-29T15:43:25;26.50;1.00
4637;DHT22;2331;48.806;9.140;2022-07-29T15:45:51;26.60;1.00
4637;DHT22;2331;48.806;9.140;2022-07-29T15:48:38;26.60;1.00
4637;DHT22;2331;48.806;9.140;2022-07-29T15:51:05;26.70;1.00
4637;DHT22;2331;48.806;9.140;2022-07-29T15:53:31;26.70;1.00
4637;DHT22;2331;48.806;9.140;2022-07-29T15:55:58;26.70;1.00
4637;DHT22;2331;48.806;9.140;2022-07-29T15:58:26;26.70;1.00
4637;DHT22;2331;48.806;9.140;2022-07-29T16:00:53;26.70;1.00
4637;DHT22;2331;48.806;9.140;2022-07-29T16:03:20;26.70;1.00
4637;DHT22;2331;48.806;9.140;2022-07-29T16:05:47;26.80;1.00
4637;DHT22;2331;48.806;9.140;2022-07-29T16:08:14;26.80;1.00
4637;DHT22;2331;48.806;9.140;2022-07-29T16:10:41;26.80;1.00
4637;DHT22;2331;48.806;9.140;2022-07-29T16:13:07;26.90;1.00
4637;DHT22;2331;48.806;9.140;2022-07-29T16:15:36;26.90;1.00
4637;DHT22;2331;48.806;9.140;2022-07-29T16:18:02;26.80;1.00
4637;DHT22;2331;48.806;9.140;2022-07-29T16:20:29;26.80;1.00
4637;DHT22;2331;48.806;9.140;2022-07-29T16:22:56;26.80;1.00
4637;DHT22;2331;48.806;9.140;2022-07-29T16:25:23;26.80;1.00
4637;DHT22;2331;48.806;9.140;2022-07-29T16:27:50;26.80;1.00
4637;DHT22;2331;48.806;9.140;2022-07-29T16:30:16;26.70;1.00
4637;DHT22;2331;48.806;9.140;2022-07-29T16:32:45;26.70;1.00